createdAt,value
2018-11-14T00:00:02.917Z,99894.80
2018-11-14T00:02:15.126Z,99898.33
2018-11-14T00:04:27.356Z,99898.39
2018-11-14T00:06:39.530Z,99894.94
2018-11-14T00:08:51.788Z,99887.17
2018-11-14T00:11:04.137Z,99888.90
2018-11-14T00:13:16.386Z,99885.06
2018-11-14T00:15:28.578Z,99895.00
2018-11-14T00:17:41.494Z,99893.34
2018-11-14T00:19:54.038Z,99901.92
2018-11-14T00:22:05.975Z,99901.45
2018-11-14T00:24:18.230Z,99901.01
2018-11-14T00:26:30.433Z,99905.78
2018-11-14T00:28:42.645Z,99905.88
2018-11-14T00:30:54.833Z,99905.48
2018-11-14T00:33:07.081Z,99905.03
2018-11-14T00:35:19.287Z,99901.58
2018-11-14T00:37:31.498Z,99903.30
2018-11-14T00:39:43.699Z,99899.85
2018-11-14T00:41:55.897Z,99894.45
2018-11-14T00:44:08.090Z,99897.99
2018-11-14T00:46:20.327Z,99897.64
2018-11-14T00:48:32.514Z,99900.80
2018-11-14T00:50:44.709Z,99897.02
2018-11-14T00:52:56.925Z,99902.60
2018-11-14T00:55:12.088Z,99896.58
2018-11-14T00:57:24.270Z,99894.44
2018-11-14T00:59:36.503Z,99895.75
2018-11-14T01:01:48.696Z,99894.92
2018-11-14T01:04:00.875Z,99894.55
2018-11-14T01:06:13.098Z,99903.63
2018-11-14T01:08:25.277Z,99899.77
2018-11-14T01:10:37.505Z,99902.31
2018-11-14T01:12:50.194Z,99898.87
2018-11-14T01:15:02.372Z,99896.23
2018-11-14T01:17:14.625Z,99899.23
2018-11-14T01:19:26.802Z,99901.34
2018-11-14T01:21:39.173Z,99896.60
2018-11-14T01:23:51.325Z,99898.28
2018-11-14T01:26:03.832Z,99897.78
2018-11-14T01:28:16.072Z,99902.52
2018-11-14T01:30:28.255Z,99897.48
2018-11-14T01:32:40.596Z,99895.88
2018-11-14T01:34:52.791Z,99899.42
2018-11-14T01:37:05.462Z,99901.19
2018-11-14T01:39:17.670Z,99903.77
2018-11-14T01:41:29.871Z,99907.16
2018-11-14T01:43:42.115Z,99906.30
2018-11-14T01:45:54.302Z,99901.63
2018-11-14T01:48:06.490Z,99902.09
2018-11-14T01:50:18.751Z,99894.00
2018-11-14T01:52:30.984Z,99894.47
2018-11-14T01:54:43.174Z,99894.11
2018-11-14T01:56:55.373Z,99894.63
2018-11-14T01:59:07.666Z,99894.66
2018-11-14T02:01:19.875Z,99898.88
2018-11-14T02:03:32.132Z,99892.03
2018-11-14T02:05:44.301Z,99900.59
2018-11-14T02:07:56.463Z,99894.97
2018-11-14T02:10:11.322Z,99894.56
2018-11-14T02:12:23.500Z,99888.53
2018-11-14T02:14:35.707Z,99888.11
2018-11-14T02:16:48.015Z,99886.86
2018-11-14T02:19:00.280Z,99889.84
2018-11-14T02:21:12.459Z,99885.57
2018-11-14T02:23:24.653Z,99889.47
2018-11-14T02:25:36.810Z,99888.70
2018-11-14T02:27:49.044Z,99885.69
2018-11-14T02:30:01.228Z,99890.03
2018-11-14T02:32:13.419Z,99887.89
2018-11-14T02:34:25.663Z,99891.31
2018-11-14T02:36:37.851Z,99889.58
2018-11-14T02:38:50.050Z,99892.17
2018-11-14T02:41:02.239Z,99891.32
2018-11-14T02:43:14.428Z,99885.74
2018-11-14T02:45:26.626Z,99888.73
2018-11-14T02:47:38.862Z,99883.98
2018-11-14T02:49:51.048Z,99881.41
2018-11-14T02:52:03.300Z,99879.67
2018-11-14T02:54:15.539Z,99879.67
2018-11-14T02:56:27.722Z,99878.84
2018-11-14T02:58:39.949Z,99881.88
2018-11-14T03:00:52.121Z,99879.30
2018-11-14T03:03:04.347Z,99875.03
2018-11-14T03:05:16.642Z,99872.05
2018-11-14T03:07:28.843Z,99874.20
2018-11-14T03:09:41.119Z,99868.30
2018-11-14T03:11:53.311Z,99869.64
2018-11-14T03:14:05.804Z,99870.13
2018-11-14T03:16:18.041Z,99862.45
2018-11-14T03:18:30.250Z,99863.73
2018-11-14T03:20:42.463Z,99865.03
2018-11-14T03:22:54.680Z,99864.58
2018-11-14T03:25:07.655Z,99864.58
2018-11-14T03:27:19.851Z,99864.19
2018-11-14T03:29:32.036Z,99874.47
2018-11-14T03:31:44.256Z,99868.47
2018-11-14T03:33:56.495Z,99867.64
2018-11-14T03:36:14.432Z,99871.88
2018-11-14T03:38:26.640Z,99868.93
2018-11-14T03:40:38.861Z,99871.09
2018-11-14T03:42:51.060Z,99873.64
2018-11-14T03:45:03.371Z,99873.61
2018-11-14T03:47:15.664Z,99862.05
2018-11-14T03:49:27.845Z,99861.61
2018-11-14T03:51:40.082Z,99858.15
2018-11-14T03:53:52.307Z,99856.42
2018-11-14T03:56:05.271Z,99859.44
2018-11-14T03:58:17.474Z,99850.05
2018-11-14T04:00:29.782Z,99845.36
2018-11-14T04:02:43.162Z,99850.08
2018-11-14T04:04:55.356Z,99847.95
2018-11-14T04:07:07.554Z,99849.22
2018-11-14T04:09:19.796Z,99844.09
2018-11-14T04:11:31.941Z,99852.70
2018-11-14T04:13:44.198Z,99840.36
2018-11-14T04:15:56.359Z,99838.25
2018-11-14T04:18:08.542Z,99843.38
2018-11-14T04:20:20.747Z,99837.82
2018-11-14T04:22:32.934Z,99836.97
2018-11-14T04:24:45.150Z,99844.22
2018-11-14T04:26:57.338Z,99833.50
2018-11-14T04:29:09.530Z,99837.77
2018-11-14T04:31:21.713Z,99834.28
2018-11-14T04:33:33.963Z,99838.92
2018-11-14T04:35:46.193Z,99832.07
2018-11-14T04:37:58.464Z,99839.31
2018-11-14T04:40:12.625Z,99844.87
2018-11-14T04:42:24.819Z,99841.45
2018-11-14T04:44:37.038Z,99844.86
2018-11-14T04:46:49.234Z,99846.61
2018-11-14T04:49:01.448Z,99843.64
2018-11-14T04:51:13.657Z,99845.38
2018-11-14T04:53:25.839Z,99840.22
2018-11-14T04:55:38.072Z,99835.06
2018-11-14T04:57:50.557Z,99836.34
2018-11-14T05:00:02.942Z,99834.14
2018-11-14T05:02:15.148Z,99835.78
2018-11-14T05:04:27.322Z,99833.16
2018-11-14T05:06:39.497Z,99840.84
2018-11-14T05:08:51.726Z,99841.31
2018-11-14T05:11:04.097Z,99846.55
2018-11-14T05:13:16.269Z,99841.00
2018-11-14T05:15:28.566Z,99842.73
2018-11-14T05:17:40.928Z,99844.86
2018-11-14T05:19:53.125Z,99844.45
2018-11-14T05:22:05.563Z,99849.56
2018-11-14T05:24:17.807Z,99847.86
2018-11-14T05:26:29.978Z,99849.57
2018-11-14T05:28:42.209Z,99849.11
2018-11-14T05:30:54.504Z,99850.69
2018-11-14T05:33:06.665Z,99850.53
2018-11-14T05:35:18.963Z,99851.36
2018-11-14T05:37:31.130Z,99846.71
2018-11-14T05:39:43.418Z,99852.34
2018-11-14T05:41:55.550Z,99850.25
2018-11-14T05:44:07.762Z,99855.47
2018-11-14T05:46:19.984Z,99855.91
2018-11-14T05:48:32.239Z,99855.59
2018-11-14T05:50:44.517Z,99862.02
2018-11-14T05:52:56.794Z,99863.28
2018-11-14T05:55:09.734Z,99859.03
2018-11-14T05:57:21.975Z,99853.06
2018-11-14T05:59:34.202Z,99857.36
2018-11-14T06:01:46.421Z,99859.52
2018-11-14T06:03:58.621Z,99854.02
2018-11-14T06:06:10.835Z,99845.94
2018-11-14T06:08:23.123Z,99842.97
2018-11-14T06:10:35.381Z,99836.16
2018-11-14T06:12:47.870Z,99826.31
2018-11-14T06:15:00.060Z,99821.22
2018-11-14T06:17:12.306Z,99823.80
2018-11-14T06:19:24.488Z,99833.63
2018-11-14T06:21:36.724Z,99832.78
2018-11-14T06:23:49.097Z,99837.47
2018-11-14T06:26:01.091Z,99833.60
2018-11-14T06:28:13.299Z,99838.27
2018-11-14T06:30:25.839Z,99834.87
2018-11-14T06:32:38.148Z,99835.72
2018-11-14T06:34:50.367Z,99834.42
2018-11-14T06:37:02.625Z,99834.02
2018-11-14T06:39:14.824Z,99837.84
2018-11-14T06:41:27.060Z,99837.02
2018-11-14T06:43:39.240Z,99825.48
2018-11-14T06:45:51.422Z,99819.52
2018-11-14T06:48:04.174Z,99824.20
2018-11-14T06:50:16.508Z,99821.20
2018-11-14T06:52:28.731Z,99817.36
2018-11-14T06:54:41.059Z,99820.34
2018-11-14T06:56:53.278Z,99823.31
2018-11-14T06:59:05.689Z,99827.56
2018-11-14T07:01:17.730Z,99817.75
2018-11-14T07:03:30.020Z,99808.33
2018-11-14T07:05:42.311Z,99810.89
2018-11-14T07:07:54.447Z,99813.45
2018-11-14T07:10:08.252Z,99811.33
2018-11-14T07:12:20.435Z,99807.89
2018-11-14T07:14:32.652Z,99801.91
2018-11-14T07:16:44.877Z,99792.52
2018-11-14T07:18:57.110Z,99798.06
2018-11-14T07:21:09.306Z,99799.77
2018-11-14T07:23:21.507Z,99806.61
2018-11-14T07:25:33.823Z,99802.75
2018-11-14T07:27:46.088Z,99791.64
2018-11-14T07:29:58.322Z,99788.64
2018-11-14T07:32:10.609Z,99796.77
2018-11-14T07:34:22.763Z,99802.73
2018-11-14T07:36:34.975Z,99801.42
2018-11-14T07:38:49.200Z,99804.83
2018-11-14T07:41:02.559Z,99809.50
2018-11-14T07:43:14.753Z,99811.61
2018-11-14T07:45:26.966Z,99799.59
2018-11-14T07:47:39.187Z,99811.03
2018-11-14T07:49:51.378Z,99807.45
2018-11-14T07:52:03.634Z,99805.77
2018-11-14T07:54:15.825Z,99798.95
2018-11-14T07:56:28.139Z,99792.87
2018-11-14T07:58:40.372Z,99788.78
2018-11-14T08:00:53.316Z,99786.95
2018-11-14T08:03:05.515Z,99784.67
2018-11-14T08:05:17.717Z,99784.63
2018-11-14T08:07:29.903Z,99779.47
2018-11-14T08:09:42.181Z,99781.75
2018-11-14T08:11:54.404Z,99784.56
2018-11-14T08:14:06.609Z,99784.98
2018-11-14T08:16:18.825Z,99788.64
2018-11-14T08:18:31.210Z,99781.70
2018-11-14T08:20:43.430Z,99781.58
2018-11-14T08:22:55.631Z,99776.55
2018-11-14T08:25:07.926Z,99782.38
2018-11-14T08:27:20.176Z,99786.26
2018-11-14T08:29:32.330Z,99786.59
2018-11-14T08:31:44.551Z,99782.78
2018-11-14T08:33:56.760Z,99782.50
2018-11-14T08:36:08.966Z,99785.03
2018-11-14T08:38:21.235Z,99791.22
2018-11-14T08:40:33.470Z,99780.41
2018-11-14T08:42:45.766Z,99782.27
2018-11-14T08:44:57.967Z,99784.78
2018-11-14T08:47:10.175Z,99780.34
2018-11-14T08:49:22.447Z,99779.44
2018-11-14T08:51:34.942Z,99773.27
2018-11-14T08:53:47.172Z,99773.95
2018-11-14T08:55:59.458Z,99770.78
2018-11-14T08:58:12.602Z,99761.90
2018-11-14T09:00:25.891Z,99764.16
2018-11-14T09:02:38.091Z,99763.27
2018-11-14T09:04:50.310Z,99754.77
2018-11-14T09:07:02.511Z,99750.67
2018-11-14T09:09:14.730Z,99747.81
2018-11-14T09:11:27.040Z,99741.34
2018-11-14T09:13:39.171Z,99740.95
2018-11-14T09:15:51.554Z,99743.30
2018-11-14T09:18:03.907Z,99739.75
2018-11-14T09:20:18.448Z,99734.73
2018-11-14T09:22:30.677Z,99736.11
2018-11-14T09:24:42.945Z,99736.61
2018-11-14T09:26:55.121Z,99743.23
2018-11-14T09:29:07.303Z,99733.97
2018-11-14T09:31:19.521Z,99735.67
2018-11-14T09:33:31.692Z,99732.13
2018-11-14T09:35:43.922Z,99719.33
2018-11-14T09:37:57.351Z,99726.56
2018-11-14T09:40:11.031Z,99720.08
2018-11-14T09:42:23.222Z,99715.22
2018-11-14T09:44:35.823Z,99716.75
2018-11-14T09:46:48.049Z,99712.52
2018-11-14T09:49:00.320Z,99715.20
2018-11-14T09:51:12.520Z,99713.29
2018-11-14T09:53:24.813Z,99715.59
2018-11-14T09:55:36.976Z,99713.95
2018-11-14T09:57:49.189Z,99715.89
2018-11-14T10:00:01.390Z,99720.52
2018-11-14T10:02:13.674Z,99720.52
2018-11-14T10:04:25.840Z,99713.63
2018-11-14T10:06:38.053Z,99707.20
2018-11-14T10:08:50.335Z,99702.22
2018-11-14T10:11:02.674Z,99701.20
2018-11-14T10:13:14.709Z,99706.10
2018-11-14T10:15:26.915Z,99705.79
2018-11-14T10:17:39.423Z,99703.19
2018-11-14T10:19:51.635Z,99694.52
2018-11-14T10:22:03.872Z,99698.07
2018-11-14T10:24:16.063Z,99689.66
2018-11-14T10:26:28.302Z,99687.47
2018-11-14T10:28:40.486Z,99684.22
2018-11-14T10:30:52.724Z,99681.80
2018-11-14T10:33:04.954Z,99685.98
2018-11-14T10:35:17.159Z,99675.67
2018-11-14T10:37:29.383Z,99679.14
2018-11-14T10:39:41.614Z,99674.32
2018-11-14T10:41:53.832Z,99672.81
2018-11-14T10:44:06.128Z,99657.91
2018-11-14T10:46:18.350Z,99655.55
2018-11-14T10:48:30.572Z,99655.67
2018-11-14T10:50:42.752Z,99652.27
2018-11-14T10:52:55.875Z,99655.78
2018-11-14T10:55:08.990Z,99650.19
2018-11-14T10:57:21.209Z,99649.48
2018-11-14T10:59:33.424Z,99653.19
2018-11-14T11:01:51.224Z,99652.14
2018-11-14T11:04:09.093Z,99651.80
2018-11-14T11:06:26.994Z,99648.30
2018-11-14T11:08:44.969Z,99643.94
2018-11-14T11:11:02.971Z,99640.83
2018-11-14T11:13:21.038Z,99635.86
2018-11-14T11:15:39.906Z,99635.02
2018-11-14T11:17:57.852Z,99632.84
2018-11-14T11:20:10.068Z,99636.35
2018-11-14T11:22:22.328Z,99634.45
2018-11-14T11:24:34.528Z,99626.17
2018-11-14T11:26:46.786Z,99625.95
2018-11-14T11:28:59.730Z,99631.54
2018-11-14T11:31:11.936Z,99625.48
2018-11-14T11:33:24.130Z,99619.78
2018-11-14T11:35:36.460Z,99619.52
2018-11-14T11:37:48.721Z,99624.73
2018-11-14T11:40:01.884Z,99621.33
2018-11-14T11:42:14.079Z,99619.09
2018-11-14T11:44:26.295Z,99611.13
2018-11-14T11:46:39.550Z,99605.70
2018-11-14T11:48:51.898Z,99600.90
2018-11-14T11:51:04.635Z,99594.41
2018-11-14T11:53:24.719Z,99590.72
2018-11-14T11:55:38.801Z,99589.05
2018-11-14T11:57:51.010Z,99586.17
2018-11-14T12:00:04.835Z,99577.64
2018-11-14T12:02:17.031Z,99584.78
2018-11-14T12:04:29.231Z,99583.05
2018-11-14T12:06:41.427Z,99579.52
2018-11-14T12:08:53.642Z,99578.82
2018-11-14T12:11:06.074Z,99574.83
2018-11-14T12:13:18.389Z,99577.28
2018-11-14T12:15:30.590Z,99573.14
2018-11-14T12:17:43.326Z,99573.09
2018-11-14T12:19:55.530Z,99571.50
2018-11-14T12:22:07.850Z,99570.14
2018-11-14T12:24:20.060Z,99572.22
2018-11-14T12:26:32.282Z,99570.91
2018-11-14T12:28:44.566Z,99574.69
2018-11-14T12:30:56.995Z,99573.52
2018-11-14T12:33:09.071Z,99569.09
2018-11-14T12:35:21.460Z,99567.91
2018-11-14T12:37:33.685Z,99569.59
2018-11-14T12:39:45.926Z,99561.16
2018-11-14T12:41:58.206Z,99568.25
2018-11-14T12:44:10.457Z,99569.94
2018-11-14T12:46:22.716Z,99559.97
2018-11-14T12:48:38.748Z,99566.57
2018-11-14T12:50:50.963Z,99564.70
2018-11-14T12:53:03.341Z,99566.81
2018-11-14T12:55:16.875Z,99561.59
2018-11-14T12:57:29.139Z,99560.39
2018-11-14T12:59:41.514Z,99559.50
2018-11-14T13:01:53.696Z,99555.40
2018-11-14T13:04:05.999Z,99549.34
2018-11-14T13:06:18.238Z,99551.58
2018-11-14T13:08:30.464Z,99545.58
2018-11-14T13:10:42.723Z,99541.67
2018-11-14T13:12:54.968Z,99536.83
2018-11-14T13:15:08.411Z,99534.07
2018-11-14T13:17:20.643Z,99534.59
2018-11-14T13:19:32.911Z,99534.13
2018-11-14T13:21:45.204Z,99531.14
2018-11-14T13:24:00.272Z,99536.22
2018-11-14T13:26:12.533Z,99531.23
2018-11-14T13:28:24.730Z,99537.76
2018-11-14T13:30:36.988Z,99531.19
2018-11-14T13:32:49.747Z,99529.23
2018-11-14T13:35:02.075Z,99527.70
2018-11-14T13:37:14.266Z,99526.31
2018-11-14T13:39:26.410Z,99524.77
2018-11-14T13:41:38.778Z,99524.53
2018-11-14T13:43:50.987Z,99531.42
2018-11-14T13:46:03.215Z,99526.67
2018-11-14T13:48:15.443Z,99522.47
2018-11-14T13:50:27.817Z,99528.58
2018-11-14T13:52:40.031Z,99528.98
2018-11-14T13:54:52.290Z,99524.53
2018-11-14T13:57:04.651Z,99531.37
2018-11-14T13:59:16.952Z,99538.41
2018-11-14T14:01:29.286Z,99532.06
2018-11-14T14:03:42.481Z,99534.81
2018-11-14T14:05:54.651Z,99533.79
2018-11-14T14:08:06.968Z,99538.11
2018-11-14T14:10:19.459Z,99535.74
2018-11-14T14:12:31.692Z,99535.28
2018-11-14T14:14:43.941Z,99536.64
2018-11-14T14:16:56.152Z,99537.70
2018-11-14T14:19:08.703Z,99536.11
2018-11-14T14:21:20.914Z,99530.56
2018-11-14T14:23:33.089Z,99529.02
2018-11-14T14:25:45.270Z,99522.10
2018-11-14T14:27:57.526Z,99524.09
2018-11-14T14:30:11.692Z,99524.17
2018-11-14T14:32:23.902Z,99523.47
2018-11-14T14:34:36.142Z,99521.16
2018-11-14T14:36:48.384Z,99517.80
2018-11-14T14:39:00.669Z,99518.50
2018-11-14T14:41:13.127Z,99524.09
2018-11-14T14:43:25.320Z,99528.52
2018-11-14T14:45:37.562Z,99523.47
2018-11-14T14:47:49.742Z,99525.15
2018-11-14T14:50:01.984Z,99532.42
2018-11-14T14:52:14.227Z,99530.36
2018-11-14T14:54:26.507Z,99537.12
2018-11-14T14:56:38.799Z,99534.13
2018-11-14T14:58:50.990Z,99536.22
2018-11-14T15:01:03.231Z,99538.83
2018-11-14T15:03:15.467Z,99535.37
2018-11-14T15:05:27.698Z,99539.42
2018-11-14T15:07:40.301Z,99536.06
2018-11-14T15:09:52.506Z,99536.06
2018-11-14T15:12:05.224Z,99532.53
2018-11-14T15:14:17.427Z,99526.38
2018-11-14T15:16:29.695Z,99523.58
2018-11-14T15:18:41.883Z,99529.27
2018-11-14T15:20:54.205Z,99526.79
2018-11-14T15:23:06.445Z,99518.86
2018-11-14T15:25:20.077Z,99514.71
2018-11-14T15:27:32.308Z,99511.48
2018-11-14T15:29:44.512Z,99512.66
2018-11-14T15:31:56.780Z,99507.25
2018-11-14T15:34:08.996Z,99509.02
2018-11-14T15:36:21.268Z,99506.37
2018-11-14T15:38:33.498Z,99501.05
2018-11-14T15:40:45.730Z,99501.05
2018-11-14T15:42:58.137Z,99496.30
2018-11-14T15:45:13.198Z,99494.30
2018-11-14T15:47:25.433Z,99493.84
2018-11-14T15:49:37.651Z,99491.78
2018-11-14T15:51:50.078Z,99496.27
2018-11-14T15:54:02.240Z,99496.05
2018-11-14T15:56:14.479Z,99500.62
2018-11-14T15:58:26.751Z,99500.23
2018-11-14T16:00:38.978Z,99501.24
2018-11-14T16:02:51.221Z,99500.52
2018-11-14T16:05:04.007Z,99503.83
2018-11-14T16:07:16.254Z,99505.66
2018-11-14T16:09:28.546Z,99504.98
2018-11-14T16:11:40.762Z,99511.54
2018-11-14T16:13:58.384Z,99508.55
2018-11-14T16:16:10.567Z,99512.69
2018-11-14T16:18:22.806Z,99506.16
2018-11-14T16:20:35.079Z,99505.36
2018-11-14T16:22:47.272Z,99499.44
2018-11-14T16:24:59.523Z,99510.12
2018-11-14T16:27:11.750Z,99506.19
2018-11-14T16:29:23.974Z,99508.44
2018-11-14T16:31:36.256Z,99512.63
2018-11-14T16:33:48.567Z,99514.42
2018-11-14T16:36:00.798Z,99516.36
2018-11-14T16:38:13.076Z,99518.79
2018-11-14T16:40:26.689Z,99519.46
2018-11-14T16:42:39.267Z,99521.23
2018-11-14T16:44:51.512Z,99517.79
2018-11-14T16:47:03.697Z,99515.86
2018-11-14T16:49:15.971Z,99514.41
2018-11-14T16:51:28.174Z,99518.30
2018-11-14T16:53:40.375Z,99515.14
2018-11-14T16:55:52.653Z,99517.38
2018-11-14T16:58:05.179Z,99517.06
2018-11-14T17:00:32.815Z,99519.18
2018-11-14T17:02:45.038Z,99517.62
2018-11-14T17:04:57.266Z,99516.89
2018-11-14T17:07:09.501Z,99511.96
2018-11-14T17:09:21.711Z,99514.39
2018-11-14T17:11:33.956Z,99518.25
2018-11-14T17:13:46.158Z,99526.97
2018-11-14T17:15:58.387Z,99521.77
2018-11-14T17:18:10.601Z,99535.04
2018-11-14T17:20:23.104Z,99535.47
2018-11-14T17:22:35.405Z,99540.27
2018-11-14T17:24:47.635Z,99538.97
2018-11-14T17:26:59.923Z,99542.30
2018-11-14T17:29:12.175Z,99547.84
2018-11-14T17:31:24.487Z,99549.83
2018-11-14T17:33:36.737Z,99547.26
2018-11-14T17:35:49.055Z,99551.40
2018-11-14T17:38:01.334Z,99546.28
2018-11-14T17:40:23.977Z,99547.12
2018-11-14T17:42:36.575Z,99550.48
2018-11-14T17:44:48.656Z,99556.97
2018-11-14T17:47:00.861Z,99559.64
2018-11-14T17:49:13.133Z,99560.82
2018-11-14T17:51:25.379Z,99561.21
2018-11-14T17:53:37.679Z,99564.30
2018-11-14T17:55:49.916Z,99564.14
2018-11-14T17:58:02.165Z,99566.42
2018-11-14T18:00:16.875Z,99565.89
2018-11-14T18:02:29.130Z,99569.00
2018-11-14T18:04:41.405Z,99572.14
2018-11-14T18:06:53.864Z,99572.27
2018-11-14T18:09:08.801Z,99578.11
2018-11-14T18:11:21.106Z,99580.78
2018-11-14T18:13:33.363Z,99576.14
2018-11-14T18:15:45.586Z,99575.05
2018-11-14T18:17:58.941Z,99572.91
2018-11-14T18:20:14.223Z,99570.00
2018-11-14T18:22:26.459Z,99567.17
2018-11-14T18:24:38.808Z,99560.78
2018-11-14T18:26:51.046Z,99566.41
2018-11-14T18:29:03.324Z,99556.14
2018-11-14T18:31:15.575Z,99564.41
2018-11-14T18:33:27.767Z,99563.70
2018-11-14T18:35:40.003Z,99565.84
2018-11-14T18:37:53.287Z,99566.73
2018-11-14T18:40:08.060Z,99565.90
2018-11-14T18:42:20.326Z,99568.53
2018-11-14T18:44:32.555Z,99566.48
2018-11-14T18:46:44.798Z,99570.95
2018-11-14T18:48:57.057Z,99570.67
2018-11-14T18:51:09.299Z,99571.89
2018-11-14T18:53:21.586Z,99569.84
2018-11-14T18:55:34.504Z,99570.10
2018-11-14T18:57:46.874Z,99569.20
2018-11-14T18:59:59.130Z,99571.98
2018-11-14T19:02:11.454Z,99569.96
2018-11-14T19:04:23.732Z,99566.17
2018-11-14T19:06:36.236Z,99571.08
2018-11-14T19:08:49.059Z,99572.93
2018-11-14T19:11:01.343Z,99572.08
2018-11-14T19:13:13.658Z,99565.69
2018-11-14T19:15:27.431Z,99563.55
2018-11-14T19:17:39.814Z,99567.94
2018-11-14T19:19:52.071Z,99564.13
2018-11-14T19:22:04.488Z,99553.86
2018-11-14T19:24:16.968Z,99552.20
2018-11-14T19:26:29.316Z,99556.23
2018-11-14T19:28:41.620Z,99568.69
2018-11-14T19:30:53.851Z,99561.18
2018-11-14T19:33:06.207Z,99556.91
2018-11-14T19:35:18.552Z,99557.69
2018-11-14T19:37:30.821Z,99560.73
2018-11-14T19:39:43.085Z,99560.91
2018-11-14T19:41:55.324Z,99567.30
2018-11-14T19:44:07.628Z,99563.48
2018-11-14T19:46:19.909Z,99566.97
2018-11-14T19:48:32.189Z,99567.54
2018-11-14T19:50:44.429Z,99561.08
2018-11-14T19:52:56.778Z,99569.55
2018-11-14T19:55:10.819Z,99566.17
2018-11-14T19:57:23.139Z,99559.80
2018-11-14T19:59:35.439Z,99555.84
2018-11-14T20:01:47.703Z,99556.01
2018-11-14T20:04:00.032Z,99551.42
2018-11-14T20:06:12.283Z,99548.72
2018-11-14T20:08:24.593Z,99548.84
2018-11-14T20:10:37.010Z,99546.31
2018-11-14T20:12:49.732Z,99552.77
2018-11-14T20:15:02.293Z,99549.75
2018-11-14T20:17:14.533Z,99550.26
2018-11-14T20:19:26.798Z,99549.75
2018-11-14T20:21:39.076Z,99546.39
2018-11-14T20:23:51.365Z,99548.12
2018-11-14T20:26:03.717Z,99549.14
2018-11-14T20:28:15.976Z,99552.72
2018-11-14T20:30:29.508Z,99553.62
2018-11-14T20:32:41.776Z,99555.14
2018-11-14T20:34:54.011Z,99554.34
2018-11-14T20:37:06.382Z,99553.85
2018-11-14T20:39:18.633Z,99556.86
2018-11-14T20:41:30.894Z,99554.86
2018-11-14T20:43:43.175Z,99550.09
2018-11-14T20:45:55.498Z,99552.73
2018-11-14T20:48:07.766Z,99549.36
2018-11-14T20:50:21.188Z,99551.88
2018-11-14T20:52:33.447Z,99551.84
2018-11-14T20:54:45.728Z,99552.55
2018-11-14T20:56:57.990Z,99557.27
2018-11-14T20:59:10.206Z,99554.17
2018-11-14T21:01:22.465Z,99553.73
2018-11-14T21:03:34.672Z,99555.34
2018-11-14T21:05:47.041Z,99554.86
2018-11-14T21:07:59.235Z,99553.17
2018-11-14T21:10:13.665Z,99558.33
2018-11-14T21:12:25.872Z,99554.45
2018-11-14T21:14:38.116Z,99550.69
2018-11-14T21:16:50.499Z,99560.06
2018-11-14T21:19:02.797Z,99560.51
2018-11-14T21:21:15.035Z,99553.17
2018-11-14T21:23:27.306Z,99552.84
2018-11-14T21:25:39.479Z,99546.04
2018-11-14T21:27:52.287Z,99556.19
2018-11-14T21:30:06.957Z,99553.56
2018-11-14T21:32:19.181Z,99554.73
2018-11-14T21:34:31.372Z,99549.02
2018-11-14T21:36:43.694Z,99553.12
2018-11-14T21:38:55.959Z,99559.73
2018-11-14T21:41:08.190Z,99551.59
2018-11-14T21:43:20.492Z,99544.20
2018-11-14T21:45:32.662Z,99548.80
2018-11-14T21:47:50.420Z,99544.93
2018-11-14T21:50:02.955Z,99541.42
2018-11-14T21:52:15.162Z,99544.01
2018-11-14T21:54:27.531Z,99538.69
2018-11-14T21:56:39.767Z,99542.55
2018-11-14T21:58:52.030Z,99543.33
2018-11-14T22:01:04.703Z,99537.31
2018-11-14T22:03:16.937Z,99539.34
2018-11-14T22:05:29.182Z,99541.92
2018-11-14T22:07:41.451Z,99535.25
2018-11-14T22:09:53.639Z,99534.08
2018-11-14T22:12:05.867Z,99531.23
2018-11-14T22:14:18.150Z,99540.33
2018-11-14T22:16:30.349Z,99543.80
2018-11-14T22:18:42.557Z,99539.48
2018-11-14T22:20:54.868Z,99534.27
2018-11-14T22:23:07.097Z,99539.88
2018-11-14T22:25:21.422Z,99531.75
2018-11-14T22:27:33.670Z,99529.66
2018-11-14T22:29:45.877Z,99524.56
2018-11-14T22:31:58.072Z,99522.11
2018-11-14T22:34:10.270Z,99523.33
2018-11-14T22:36:22.467Z,99525.02
2018-11-14T22:38:34.744Z,99533.59
2018-11-14T22:40:46.960Z,99529.34
2018-11-14T22:42:59.152Z,99529.84
2018-11-14T22:45:13.626Z,99533.16
2018-11-14T22:47:25.878Z,99523.33
2018-11-14T22:49:38.103Z,99523.89
2018-11-14T22:51:50.348Z,99527.27
2018-11-14T22:54:02.580Z,99525.62
2018-11-14T22:56:14.801Z,99523.67
2018-11-14T22:58:27.033Z,99521.59
2018-11-14T23:00:45.386Z,99518.58
2018-11-14T23:02:58.776Z,99520.47
2018-11-14T23:05:10.974Z,99526.53
2018-11-14T23:07:23.257Z,99522.17
2018-11-14T23:09:35.501Z,99524.80
2018-11-14T23:11:47.763Z,99522.54
2018-11-14T23:13:59.994Z,99521.37
2018-11-14T23:16:12.183Z,99519.70
2018-11-14T23:18:24.460Z,99521.11
2018-11-14T23:20:36.649Z,99520.09
2018-11-14T23:22:49.525Z,99523.61
2018-11-14T23:25:01.840Z,99525.25
2018-11-14T23:27:14.035Z,99527.38
2018-11-14T23:29:26.278Z,99526.98
2018-11-14T23:31:38.463Z,99526.93
2018-11-14T23:33:50.663Z,99528.28
2018-11-14T23:36:02.871Z,99530.28
2018-11-14T23:38:15.060Z,99523.05
2018-11-14T23:40:27.504Z,99525.70
2018-11-14T23:42:39.739Z,99516.67
2018-11-14T23:44:51.940Z,99521.77
2018-11-14T23:47:04.258Z,99518.39
2018-11-14T23:49:16.440Z,99517.56
2018-11-14T23:51:28.638Z,99511.45
2018-11-14T23:53:40.904Z,99518.80
2018-11-14T23:55:53.111Z,99517.80
2018-11-14T23:58:05.278Z,99518.67
